Airfield :
LOGIN :

Register | Disclaimer

   EN    FR    IT 

 










Legend :    VFR   Marginal VFR   IFR   Intensive IFR   Very Intensive IFR
Visi :
Ceiling :
>= 8 km
>= 3000ft
5 to 8 km
1000 to 3000 ft
1500m to 5 km
500 to 1000 ft
800 to 1500m
200 to 500 ft
< 800m
< 200 ft
Symbols :   Thunderstorms  Fog  Heavy snow  Heavy precipitations  Wind > 20 kt
SIGMETs :     Misc.  Thunderstorms  Icing  Turbulence  Mountain Waves  Volcanic Ashes







- Airport Elevation : 79 ft
- IATA code : SPU


LDSP - Split

CURRENT METAR :
  • 142100Z 34005KT 300V020 CAVOK 23/16 Q1012 NOSIG

EXPIRED METARs :
  • 142030Z 34006KT CAVOK 23/17 Q1012 NOSIG
  • 142000Z 35004KT 300V100 CAVOK 24/16 Q1012 NOSIG
  • 141930Z VRB02KT CAVOK 23/17 Q1012 NOSIG
  • 141900Z 32009KT 300V350 CAVOK 23/18 Q1011 NOSIG
  • 141830Z 32006KT CAVOK 24/18 Q1011 NOSIG

TAF TAF LDSP
Valid from the 14 at 18:00 until the 15 at 18:00 UTC


141725Z 1418/1518 32008KT 9999 FEW030 SCT035 TX29/1511Z TN21/1422Z
PROB30
TEMPO 1421/1500 31015G28KT -TSRA FEW030CB BKN033
TEMPO 1501/1507 04008KT
TEMPO 1510/1516 23008KT
PROB30
TEMPO 1515/1518 TS FEW040CB
No reported NOTAMs for that airfield.
2 SIGMETs reported for the Zagreb FIR (LDZO) :
 
Embedded thunderstorms
LDZO SIGMET 12 VALID 142000/142300 LDZA
LDZO ZAGREB FIR EMBD TS OBS W OF LINE N4329 E01431 - N4528 E01412 TOP FL380 STNR NC=
Embedded thunderstorms
LDZO SIGMET 11 VALID 141942/142300 LDZA
LDZO ZAGREB FIR EMBD TS OBS SE OF LINE N4221 E01620 - N4252 E01739 TOP FL400 STNR NC=



MET'MAP, your aeronautical weather chart ! - Copyright ORBIFLY December 2007 - Disclaimer

ORBIFLY MET'MAP TEAM :

Programming & Development : Alexandra Zaïnal
Concept & Development : Baudouin d'Aumeries
Co-Development & Prog : Marc-Olivier Méhu
Technical & hardware support : Manuel Goepfert

Contact : metmap@orbifly.com




SOURCES & CREDITS :

   NOAA